Time;durP1;ratioP1;P1;durP2;ratioP2;P2;SDS_P1;SDS_P2;PMS_P1;PMS_P2;Temp;Humidity;BMP_temperature;BMP_pressure;BME280_temperature;BME280_humidity;BME280_pressure;Samples;Min_cycle;Max_cycle;Signal;HPM_P1;HPM_P2
2022/10/10 00:00:40;;;;;;;8.32;3.25;;;12.80;71.10;;;;;;5017962;28;20828;-75
2022/10/10 00:03:07;;;;;;;6.43;3.30;;;12.80;70.70;;;;;;5032494;28;20017;-75
2022/10/10 00:05:33;;;;;;;5.70;2.88;;;12.80;71.20;;;;;;5018895;28;20539;-74
2022/10/10 00:07:59;;;;;;;8.20;2.75;;;12.80;70.90;;;;;;5030917;28;20030;-74
2022/10/10 00:10:25;;;;;;;6.05;2.72;;;12.80;70.90;;;;;;5025246;28;20490;-73
2022/10/10 00:12:50;;;;;;;6.95;3.40;;;12.80;70.80;;;;;;5029893;28;20510;-75
2022/10/10 00:15:16;;;;;;;4.25;2.20;;;12.80;70.80;;;;;;5032147;28;20045;-74
2022/10/10 00:17:43;;;;;;;6.72;3.30;;;12.70;71.30;;;;;;5031313;28;20047;-75
2022/10/10 00:20:11;;;;;;;7.68;2.47;;;12.70;72.50;;;;;;5031446;28;20036;-75
2022/10/10 00:22:37;;;;;;;7.22;2.63;;;12.70;72.00;;;;;;4992193;28;20042;-75
2022/10/10 00:25:04;;;;;;;7.05;2.92;;;12.70;71.80;;;;;;4991005;28;20080;-75
2022/10/10 00:27:30;;;;;;;7.25;3.42;;;12.70;71.90;;;;;;4990979;28;20038;-75
2022/10/10 00:29:57;;;;;;;5.82;3.00;;;12.70;72.60;;;;;;4989424;28;20101;-75
2022/10/10 00:32:23;;;;;;;6.70;3.30;;;12.60;71.90;;;;;;4988181;28;20030;-75
2022/10/10 00:34:48;;;;;;;6.78;3.90;;;12.70;71.60;;;;;;4980581;28;20037;-75
2022/10/10 00:37:14;;;;;;;6.35;3.17;;;12.70;71.50;;;;;;4990969;28;20038;-75
2022/10/10 00:39:40;;;;;;;5.40;2.80;;;12.60;71.30;;;;;;4982813;28;20027;-75
2022/10/10 00:42:05;;;;;;;7.10;3.88;;;12.70;71.50;;;;;;4988601;28;20121;-75
2022/10/10 00:44:31;;;;;;;7.95;3.53;;;12.60;71.80;;;;;;4985487;28;20032;-75
2022/10/10 00:46:57;;;;;;;6.07;3.35;;;12.60;72.20;;;;;;4988412;28;20393;-75
2022/10/10 00:49:28;;;;;;;7.63;3.60;;;12.60;72.40;;;;;;4978828;28;20046;-75
2022/10/10 00:51:58;;;;;;;7.47;3.72;;;12.60;72.60;;;;;;4991716;28;20031;-75
2022/10/10 00:54:26;;;;;;;6.63;3.05;;;12.60;72.30;;;;;;4991214;28;20022;-75
2022/10/10 00:57:00;;;;;;;5.80;3.28;;;12.60;72.30;;;;;;4983145;28;20137;-75
2022/10/10 00:59:30;;;;;;;6.88;3.25;;;12.50;72.10;;;;;;4986660;28;20019;-74
2022/10/10 01:01:55;;;;;;;5.45;3.03;;;12.50;72.20;;;;;;4990696;28;20037;-75
2022/10/10 01:04:47;;;;;;;6.43;3.17;;;12.50;72.30;;;;;;4989781;28;20562;-75
2022/10/10 01:07:20;;;;;;;6.13;2.75;;;12.40;72.30;;;;;;4974528;28;20054;-74
2022/10/10 01:09:49;;;;;;;6.15;3.15;;;12.40;72.50;;;;;;4991445;28;20038;-75
2022/10/10 01:12:31;;;;;;;8.40;3.08;;;12.40;72.30;;;;;;4980942;28;20755;-74
2022/10/10 01:15:30;;;;;;;9.43;3.80;;;12.40;72.30;;;;;;4979532;28;20019;-75
2022/10/10 01:18:05;;;;;;;6.72;2.80;;;12.40;72.70;;;;;;4976771;28;20404;-75
2022/10/10 01:20:55;;;;;;;6.90;3.15;;;12.40;73.10;;;;;;4986812;28;20041;-75
2022/10/10 01:23:58;;;;;;;6.05;3.45;;;12.30;73.20;;;;;;5017648;28;20044;-74
2022/10/10 01:26:50;;;;;;;5.78;2.80;;;12.30;73.20;;;;;;5029053;28;20036;-74
2022/10/10 01:29:22;;;;;;;8.27;3.30;;;12.30;73.20;;;;;;5011519;28;20088;-74
2022/10/10 01:31:52;;;;;;;8.65;3.33;;;12.20;73.20;;;;;;5028447;28;20022;-75
2022/10/10 01:34:24;;;;;;;6.13;3.28;;;12.30;73.60;;;;;;5020123;28;20018;-75
2022/10/10 01:37:03;;;;;;;6.90;3.67;;;12.20;73.40;;;;;;5026950;28;20109;-74
2022/10/10 01:39:41;;;;;;;5.25;2.70;;;12.20;74.00;;;;;;5023351;28;20040;-75
2022/10/10 01:42:27;;;;;;;10.13;3.47;;;12.20;73.40;;;;;;5027905;28;20033;-75
2022/10/10 01:44:53;;;;;;;6.38;3.30;;;12.20;73.70;;;;;;5017813;28;20029;-75
2022/10/10 01:47:22;;;;;;;6.75;2.78;;;12.20;73.40;;;;;;5026570;28;20402;-75
2022/10/10 01:49:51;;;;;;;5.85;3.20;;;12.20;74.00;;;;;;5012856;28;20040;-76
2022/10/10 01:52:45;;;;;;;6.68;3.65;;;12.20;73.90;;;;;;5026905;28;20080;-75
2022/10/10 01:55:30;;;;;;;7.60;3.42;;;12.20;73.70;;;;;;5028266;28;20044;-76
2022/10/10 01:58:30;;;;;;;6.63;3.47;;;12.10;73.60;;;;;;5025548;28;20511;-75
2022/10/10 02:01:11;;;;;;;6.00;3.40;;;12.20;74.10;;;;;;5026332;28;20029;-76
2022/10/10 02:03:43;;;;;;;8.07;4.07;;;12.10;74.00;;;;;;5009932;28;20130;-75
2022/10/10 02:06:15;;;;;;;7.28;3.38;;;12.10;73.90;;;;;;5027416;28;20124;-75
2022/10/10 02:08:47;;;;;;;6.80;3.45;;;12.10;73.90;;;;;;5004305;28;20034;-76
2022/10/10 02:11:13;;;;;;;10.98;4.80;;;12.10;74.00;;;;;;5027800;28;20049;-75
2022/10/10 02:14:01;;;;;;;10.38;3.45;;;12.10;74.00;;;;;;5026864;28;20056;-76
2022/10/10 02:16:39;;;;;;;7.70;3.53;;;12.00;74.20;;;;;;5024302;28;20021;-76
2022/10/10 02:19:09;;;;;;;9.68;3.72;;;12.10;74.20;;;;;;5025672;28;20507;-76
2022/10/10 02:21:37;;;;;;;7.90;4.20;;;12.00;74.10;;;;;;5027325;28;20095;-75
2022/10/10 02:24:06;;;;;;;11.68;3.95;;;12.00;74.10;;;;;;5026931;28;20033;-75
2022/10/10 02:26:33;;;;;;;8.27;3.75;;;12.00;74.20;;;;;;5027035;28;20052;-75
2022/10/10 02:29:04;;;;;;;8.88;3.88;;;12.00;74.20;;;;;;5023142;28;20093;-75
2022/10/10 02:31:44;;;;;;;7.50;3.35;;;12.00;74.30;;;;;;5026975;28;20022;-75
2022/10/10 02:34:17;;;;;;;6.90;3.53;;;12.00;75.10;;;;;;5024749;28;20025;-75
2022/10/10 02:36:49;;;;;;;10.85;4.13;;;12.00;74.60;;;;;;5024631;28;20060;-75
2022/10/10 02:39:17;;;;;;;8.38;3.72;;;12.00;74.60;;;;;;5026719;28;20025;-75
2022/10/10 02:41:45;;;;;;;8.60;3.60;;;12.00;74.60;;;;;;5027586;28;20032;-76
2022/10/10 02:44:11;;;;;;;8.40;3.50;;;12.00;74.60;;;;;;5008488;28;20488;-75
2022/10/10 02:46:37;;;;;;;7.63;4.05;;;12.00;74.80;;;;;;5027020;28;20032;-75
2022/10/10 02:49:06;;;;;;;9.27;3.92;;;12.00;74.70;;;;;;5027477;28;20072;-75
2022/10/10 02:51:32;;;;;;;6.35;3.83;;;11.90;74.70;;;;;;5026073;28;20032;-76
2022/10/10 02:53:58;;;;;;;7.00;3.75;;;11.90;74.80;;;;;;5026684;28;20029;-75
2022/10/10 02:56:23;;;;;;;7.35;4.57;;;11.90;75.30;;;;;;5027522;28;20025;-75
2022/10/10 02:58:49;;;;;;;10.25;4.15;;;11.90;75.20;;;;;;5009001;28;20556;-75
2022/10/10 03:01:15;;;;;;;6.63;3.80;;;11.90;75.20;;;;;;5027234;28;20029;-75
2022/10/10 03:03:40;;;;;;;8.35;4.28;;;11.90;75.20;;;;;;5023810;28;20021;-75
2022/10/10 03:06:06;;;;;;;7.70;4.22;;;11.90;75.20;;;;;;5026646;28;20480;-75
2022/10/10 03:08:32;;;;;;;8.85;4.03;;;11.90;75.20;;;;;;5025723;28;20484;-75
2022/10/10 03:10:59;;;;;;;8.98;3.58;;;11.90;75.20;;;;;;5026133;28;20033;-75
2022/10/10 03:13:25;;;;;;;6.00;3.40;;;11.90;75.20;;;;;;5008857;28;20025;-73
2022/10/10 03:15:51;;;;;;;8.25;4.10;;;11.90;75.20;;;;;;5024458;28;20037;-75
2022/10/10 03:18:17;;;;;;;7.07;4.00;;;11.80;75.20;;;;;;5028169;28;20032;-76
2022/10/10 03:20:50;;;;;;;7.65;3.55;;;11.80;75.30;;;;;;5025522;28;20887;-75
2022/10/10 03:23:15;;;;;;;7.63;4.10;;;11.80;75.60;;;;;;5025162;28;20052;-75
2022/10/10 03:25:45;;;;;;;6.97;3.70;;;11.70;75.70;;;;;;5019728;28;20732;-76
2022/10/10 03:28:11;;;;;;;7.75;4.43;;;11.70;75.60;;;;;;5029174;28;20564;-75
2022/10/10 03:30:37;;;;;;;7.25;3.97;;;11.70;75.60;;;;;;5030005;28;20052;-75
2022/10/10 03:33:03;;;;;;;7.60;3.88;;;11.70;75.70;;;;;;5029617;28;20018;-75
2022/10/10 03:35:29;;;;;;;6.63;3.88;;;11.70;75.70;;;;;;5027085;28;20030;-75
2022/10/10 03:37:56;;;;;;;11.82;5.50;;;11.70;75.80;;;;;;5028348;28;20030;-74
2022/10/10 03:40:21;;;;;;;9.02;4.75;;;11.70;75.90;;;;;;5027560;28;20048;-75
2022/10/10 03:42:47;;;;;;;7.05;4.40;;;11.60;75.90;;;;;;5028114;28;20064;-74
2022/10/10 03:45:13;;;;;;;8.77;4.95;;;11.70;76.30;;;;;;5029829;28;20116;-75
2022/10/10 03:47:38;;;;;;;9.60;4.55;;;11.70;76.20;;;;;;5028621;28;20038;-75
2022/10/10 03:50:05;;;;;;;9.88;4.32;;;11.60;76.30;;;;;;5028592;28;20022;-75
2022/10/10 03:52:30;;;;;;;7.50;3.60;;;11.60;76.90;;;;;;5029939;28;20056;-75
2022/10/10 03:54:56;;;;;;;8.40;4.32;;;11.60;76.70;;;;;;5011794;28;20667;-75
2022/10/10 03:57:21;;;;;;;9.95;5.13;;;11.60;76.80;;;;;;5029873;28;20111;-75
2022/10/10 03:59:47;;;;;;;7.03;4.40;;;11.50;76.70;;;;;;5028963;28;20037;-75
2022/10/10 04:02:14;;;;;;;8.18;4.25;;;11.50;76.80;;;;;;5029065;28;20081;-75
2022/10/10 04:04:39;;;;;;;7.28;3.90;;;11.50;76.80;;;;;;5031037;28;20451;-74
2022/10/10 04:07:05;;;;;;;7.72;5.07;;;11.50;76.70;;;;;;5027554;28;20049;-74
2022/10/10 04:09:30;;;;;;;9.00;4.60;;;11.50;76.80;;;;;;5030807;28;20021;-75
2022/10/10 04:11:56;;;;;;;9.30;4.68;;;11.50;76.90;;;;;;5025685;28;20128;-74
2022/10/10 04:14:22;;;;;;;7.43;4.97;;;11.50;77.00;;;;;;5029634;28;20747;-74
2022/10/10 04:16:47;;;;;;;6.65;3.88;;;11.50;77.00;;;;;;5028512;28;20021;-75
2022/10/10 04:19:13;;;;;;;6.90;4.40;;;11.40;76.90;;;;;;5030178;28;20034;-75
2022/10/10 04:21:39;;;;;;;8.07;4.97;;;11.40;77.50;;;;;;5027769;28;20128;-76
2022/10/10 04:24:05;;;;;;;8.13;4.72;;;11.40;77.40;;;;;;5026810;28;20071;-76
2022/10/10 04:26:31;;;;;;;9.60;4.32;;;11.30;77.30;;;;;;5029219;28;20576;-73
2022/10/10 04:28:57;;;;;;;7.13;4.35;;;11.30;77.30;;;;;;5029904;28;20087;-75
2022/10/10 04:31:23;;;;;;;8.95;4.75;;;11.30;77.40;;;;;;5012021;28;20029;-75
2022/10/10 04:33:49;;;;;;;10.82;5.18;;;11.30;77.40;;;;;;5029926;28;20100;-75
2022/10/10 04:36:14;;;;;;;10.20;5.28;;;11.20;77.40;;;;;;5012075;28;20245;-75
2022/10/10 04:38:40;;;;;;;12.63;5.30;;;11.20;78.10;;;;;;5025933;28;20030;-75
2022/10/10 04:41:05;;;;;;;7.95;4.45;;;11.20;77.50;;;;;;5028387;28;20045;-75
2022/10/10 04:43:31;;;;;;;7.00;4.22;;;11.20;77.50;;;;;;5025038;28;20180;-75
2022/10/10 04:45:57;;;;;;;11.52;4.80;;;11.20;77.60;;;;;;5029136;28;20033;-75
2022/10/10 04:48:24;;;;;;;11.65;5.15;;;11.20;77.60;;;;;;5023797;28;20029;-75
2022/10/10 04:50:53;;;;;;;8.85;4.68;;;11.10;77.60;;;;;;5029156;28;20077;-73
2022/10/10 04:53:19;;;;;;;10.55;5.07;;;11.20;77.70;;;;;;5025019;28;20048;-73
2022/10/10 04:55:44;;;;;;;10.50;4.93;;;11.10;77.70;;;;;;5023029;28;20817;-74
2022/10/10 04:58:10;;;;;;;10.77;5.40;;;11.10;77.80;;;;;;5027489;28;20037;-74
2022/10/10 05:00:38;;;;;;;10.65;5.03;;;11.10;78.00;;;;;;5025429;28;20472;-74
2022/10/10 05:03:04;;;;;;;8.32;3.63;;;11.10;78.10;;;;;;5023414;28;20048;-74
2022/10/10 05:05:30;;;;;;;9.02;3.78;;;11.30;80.80;;;;;;5012180;28;20061;-75
2022/10/10 05:07:57;;;;;;;9.70;4.07;;;11.90;83.50;;;;;;5029141;28;20037;-75
2022/10/10 05:10:25;;;;;;;7.90;3.65;;;12.70;84.50;;;;;;5026412;28;20033;-75
2022/10/10 05:12:51;;;;;;;8.65;3.63;;;13.30;83.50;;;;;;5028387;28;20021;-75
2022/10/10 05:15:18;;;;;;;7.03;3.25;;;13.90;82.20;;;;;;5028821;28;20494;-75
2022/10/10 05:17:44;;;;;;;6.68;3.10;;;14.30;80.70;;;;;;5009779;28;20029;-76
2022/10/10 05:20:10;;;;;;;6.65;2.63;;;14.70;79.30;;;;;;5025684;28;20036;-76
2022/10/10 05:22:36;;;;;;;6.05;2.97;;;15.00;78.00;;;;;;5029347;28;20049;-76
2022/10/10 05:25:05;;;;;;;6.40;3.30;;;15.20;76.70;;;;;;5024181;28;20033;-76
2022/10/10 05:27:32;;;;;;;4.75;2.72;;;15.40;75.80;;;;;;5006524;28;20125;-76
2022/10/10 05:29:57;;;;;;;5.90;3.08;;;15.50;74.70;;;;;;5025050;28;20025;-76
2022/10/10 05:32:23;;;;;;;7.60;2.90;;;15.70;73.90;;;;;;5027212;28;20033;-76
2022/10/10 05:34:49;;;;;;;6.72;2.90;;;15.80;73.00;;;;;;5025754;28;20021;-76
2022/10/10 05:37:15;;;;;;;5.22;2.78;;;15.90;72.10;;;;;;5026655;28;20120;-77
2022/10/10 05:39:40;;;;;;;5.28;2.90;;;15.90;71.80;;;;;;5027859;28;20101;-76
2022/10/10 05:42:06;;;;;;;6.78;2.40;;;16.00;71.70;;;;;;5028582;28;20021;-75
2022/10/10 05:44:32;;;;;;;5.88;2.67;;;16.10;71.40;;;;;;5024127;28;20045;-75
2022/10/10 05:46:58;;;;;;;5.22;2.33;;;16.10;71.00;;;;;;5010234;28;20120;-76
2022/10/10 05:49:24;;;;;;;7.75;3.35;;;16.10;71.10;;;;;;5027117;28;20064;-74
2022/10/10 05:51:50;;;;;;;6.57;3.97;;;16.20;69.70;;;;;;5026755;28;20121;-74
2022/10/10 05:54:15;;;;;;;6.82;3.65;;;16.10;66.10;;;;;;5029630;28;20021;-73
2022/10/10 05:56:42;;;;;;;6.68;4.30;;;15.80;64.70;;;;;;5028934;28;20014;-74
2022/10/10 05:59:08;;;;;;;8.50;4.40;;;15.60;64.20;;;;;;5025940;28;20109;-74
2022/10/10 06:01:35;;;;;;;13.52;4.70;;;15.40;64.10;;;;;;5025181;28;20121;-73
2022/10/10 06:04:01;;;;;;;6.93;4.40;;;15.10;64.10;;;;;;5027035;28;20018;-75
2022/10/10 06:06:26;;;;;;;12.63;5.03;;;14.90;64.80;;;;;;5025672;28;20030;-74
2022/10/10 06:08:52;;;;;;;8.60;4.78;;;14.70;65.40;;;;;;5026572;28;20033;-74
2022/10/10 06:11:22;;;;;;;6.80;4.43;;;14.50;66.20;;;;;;5021079;28;20034;-74
2022/10/10 06:13:52;;;;;;;11.25;5.03;;;14.50;67.00;;;;;;5029662;28;20072;-73
2022/10/10 06:16:25;;;;;;;9.38;4.30;;;14.50;67.70;;;;;;5030758;28;20022;-73
2022/10/10 06:18:51;;;;;;;9.90;4.75;;;14.60;67.90;;;;;;5015009;28;20034;-74
2022/10/10 06:21:17;;;;;;;5.95;3.72;;;14.70;68.00;;;;;;5026303;28;20045;-74
2022/10/10 06:23:43;;;;;;;9.13;3.90;;;14.70;68.40;;;;;;5025339;28;20029;-74
2022/10/10 06:26:10;;;;;;;9.82;4.15;;;14.60;68.50;;;;;;5025920;28;20033;-73
2022/10/10 06:28:36;;;;;;;8.02;4.05;;;14.50;68.80;;;;;;5028031;28;20061;-73
2022/10/10 06:31:04;;;;;;;8.80;3.92;;;14.40;69.20;;;;;;5027049;28;20025;-74
2022/10/10 06:33:30;;;;;;;7.88;4.03;;;14.40;69.70;;;;;;5027488;28;20034;-74
2022/10/10 06:35:56;;;;;;;10.50;5.05;;;14.40;70.00;;;;;;5007083;28;20037;-73
2022/10/10 06:38:22;;;;;;;14.43;6.45;;;14.30;69.90;;;;;;5021724;28;20028;-73
2022/10/10 06:40:49;;;;;;;10.15;5.78;;;14.20;70.30;;;;;;5021214;28;20022;-74
2022/10/10 06:43:15;;;;;;;10.88;6.20;;;14.10;70.90;;;;;;5021897;28;20033;-74
2022/10/10 06:45:45;;;;;;;10.18;5.10;;;14.00;71.60;;;;;;5020848;28;20623;-74
2022/10/10 06:48:12;;;;;;;12.45;6.03;;;13.90;72.00;;;;;;5005755;28;20037;-75
2022/10/10 06:50:38;;;;;;;16.42;6.38;;;13.90;71.90;;;;;;5004653;28;20025;-75
2022/10/10 06:53:04;;;;;;;12.90;6.20;;;13.80;72.70;;;;;;5021731;28;20831;-75
2022/10/10 06:55:30;;;;;;;11.90;6.50;;;13.80;73.00;;;;;;5021877;28;20037;-75
2022/10/10 06:57:56;;;;;;;10.70;6.57;;;13.80;73.40;;;;;;5021539;28;20033;-74
2022/10/10 07:00:22;;;;;;;11.45;6.43;;;13.80;73.20;;;;;;5022843;28;20114;-75
2022/10/10 07:02:48;;;;;;;9.85;5.35;;;13.80;73.30;;;;;;5024859;28;20109;-75
2022/10/10 07:05:15;;;;;;;10.45;5.65;;;13.90;73.40;;;;;;5025895;28;20033;-75
2022/10/10 07:07:42;;;;;;;14.05;6.18;;;13.80;73.70;;;;;;5025485;28;20684;-75
2022/10/10 07:10:11;;;;;;;13.57;5.93;;;13.80;74.10;;;;;;5026134;28;20033;-75
2022/10/10 07:12:38;;;;;;;11.35;5.88;;;13.80;74.50;;;;;;5027533;28;20049;-74
2022/10/10 07:15:05;;;;;;;13.27;6.57;;;13.90;74.20;;;;;;5027064;28;20125;-74
2022/10/10 07:17:31;;;;;;;11.73;6.15;;;13.90;73.90;;;;;;5026439;28;20394;-74
2022/10/10 07:19:57;;;;;;;9.15;5.93;;;14.00;74.00;;;;;;5025824;28;20440;-73
2022/10/10 07:22:24;;;;;;;11.15;5.63;;;14.00;73.90;;;;;;5025367;28;20920;-72
2022/10/10 07:24:49;;;;;;;12.32;6.43;;;14.10;74.00;;;;;;5024749;28;20038;-74
2022/10/10 07:27:16;;;;;;;9.15;5.28;;;14.10;74.20;;;;;;5024146;28;20025;-75
2022/10/10 07:29:41;;;;;;;7.95;4.57;;;14.20;74.00;;;;;;5025142;28;20030;-74
2022/10/10 07:32:07;;;;;;;14.32;7.13;;;14.30;73.60;;;;;;5025061;28;20218;-75
2022/10/10 07:34:35;;;;;;;10.63;5.38;;;14.40;73.20;;;;;;5024252;28;20079;-75
2022/10/10 07:37:02;;;;;;;11.48;6.35;;;14.40;73.80;;;;;;5007647;28;20975;-74
2022/10/10 07:39:27;;;;;;;12.98;6.28;;;14.40;73.40;;;;;;5007277;28;20033;-74
2022/10/10 07:41:53;;;;;;;11.23;6.05;;;14.50;73.60;;;;;;5026469;28;20079;-74
2022/10/10 07:44:19;;;;;;;9.48;6.60;;;14.70;73.10;;;;;;5017539;28;20026;-74
2022/10/10 07:46:45;;;;;;;11.65;5.90;;;14.70;72.80;;;;;;5031149;28;20037;-75
2022/10/10 07:49:11;;;;;;;12.77;6.20;;;14.70;72.70;;;;;;5027416;28;20041;-73
2022/10/10 07:51:37;;;;;;;11.45;6.25;;;14.60;72.90;;;;;;5028294;28;20639;-72
2022/10/10 07:54:04;;;;;;;17.63;5.85;;;14.60;73.30;;;;;;5021072;28;20049;-73
2022/10/10 07:56:29;;;;;;;9.52;4.78;;;14.60;73.70;;;;;;5028426;28;20029;-73
2022/10/10 07:59:01;;;;;;;10.73;6.78;;;14.60;74.00;;;;;;5029019;28;20087;-73
2022/10/10 08:01:27;;;;;;;15.35;7.95;;;14.80;73.70;;;;;;5014693;28;20030;-71
2022/10/10 08:03:55;;;;;;;12.30;6.40;;;14.90;73.80;;;;;;5027180;28;20036;-73
2022/10/10 08:06:21;;;;;;;9.80;6.00;;;15.00;73.30;;;;;;5029822;28;20064;-73
2022/10/10 08:08:48;;;;;;;18.23;7.38;;;15.20;73.10;;;;;;5028564;28;20057;-72
2022/10/10 08:11:14;;;;;;;11.23;7.18;;;15.30;72.20;;;;;;5019562;28;20036;-72
2022/10/10 08:13:41;;;;;;;10.65;6.18;;;15.30;72.10;;;;;;5030590;28;20021;-73
2022/10/10 08:16:07;;;;;;;13.40;6.88;;;15.30;72.20;;;;;;5028879;28;20104;-72
2022/10/10 08:18:33;;;;;;;12.10;6.00;;;15.50;72.80;;;;;;5031494;28;20029;-73
2022/10/10 08:21:01;;;;;;;11.65;6.60;;;15.60;71.80;;;;;;5009954;28;20052;-72
2022/10/10 08:23:27;;;;;;;11.90;5.28;;;15.60;71.40;;;;;;5025712;28;20037;-73
2022/10/10 08:25:57;;;;;;;8.75;5.53;;;15.60;71.70;;;;;;5030925;28;20037;-72
2022/10/10 08:28:23;;;;;;;10.82;6.70;;;15.50;72.20;;;;;;5030426;28;20065;-72
2022/10/10 08:30:48;;;;;;;12.32;6.90;;;15.50;72.90;;;;;;5018176;28;20100;-73
2022/10/10 08:33:14;;;;;;;15.27;7.35;;;15.50;72.60;;;;;;5029092;28;20026;-72
2022/10/10 08:35:40;;;;;;;14.07;6.75;;;15.60;72.60;;;;;;5026470;28;20037;-73
2022/10/10 08:38:05;;;;;;;9.85;5.68;;;15.70;72.60;;;;;;5030502;28;20095;-73
2022/10/10 08:40:31;;;;;;;18.75;6.78;;;15.70;72.30;;;;;;5013007;28;20125;-72
2022/10/10 08:43:02;;;;;;;9.98;6.65;;;15.70;72.40;;;;;;5026724;28;20030;-74
2022/10/10 08:45:28;;;;;;;14.65;7.05;;;15.60;72.40;;;;;;5030528;28;20036;-73
2022/10/10 08:48:09;;;;;;;12.32;7.53;;;15.60;72.90;;;;;;5031005;28;20048;-73
2022/10/10 08:50:41;;;;;;;13.85;7.05;;;15.70;73.00;;;;;;5026861;28;20034;-73
2022/10/10 08:53:21;;;;;;;13.68;6.90;;;15.70;73.00;;;;;;5036573;28;20431;-73
2022/10/10 08:55:47;;;;;;;13.18;6.93;;;15.70;72.90;;;;;;5028764;28;20426;-72
2022/10/10 08:58:26;;;;;;;13.15;6.50;;;15.70;72.90;;;;;;5012808;28;20040;-72
2022/10/10 09:01:04;;;;;;;12.93;6.03;;;15.80;73.70;;;;;;5025916;28;20022;-75
2022/10/10 09:03:38;;;;;;;13.27;7.00;;;15.90;72.80;;;;;;5025473;28;20033;-73
2022/10/10 09:06:34;;;;;;;12.95;6.43;;;16.00;72.60;;;;;;5028881;28;20025;-74
2022/10/10 09:09:22;;;;;;;10.18;5.90;;;16.10;72.50;;;;;;5010821;28;20389;-74
2022/10/10 09:12:14;;;;;;;9.25;5.63;;;16.30;72.30;;;;;;5030489;28;20032;-75
2022/10/10 09:14:55;;;;;;;15.90;6.57;;;16.30;72.00;;;;;;5011822;28;20029;-75
2022/10/10 09:17:30;;;;;;;11.18;6.82;;;16.60;71.80;;;;;;5022781;28;20029;-75
2022/10/10 09:20:02;;;;;;;13.55;6.70;;;16.70;70.90;;;;;;5031156;28;20029;-75
2022/10/10 09:22:34;;;;;;;13.05;6.35;;;16.80;71.00;;;;;;5030537;28;20053;-74
2022/10/10 09:25:15;;;;;;;10.57;6.65;;;16.90;71.00;;;;;;5030905;28;20024;-75
2022/10/10 09:27:46;;;;;;;7.05;3.70;;;17.00;70.80;;;;;;5005436;28;20132;-76
2022/10/10 09:30:19;;;;;;;8.05;3.42;;;17.20;71.50;;;;;;5031170;28;20037;-77
2022/10/10 09:32:55;;;;;;;8.82;4.60;;;17.30;71.10;;;;;;5031897;28;20160;-76
2022/10/10 09:35:27;;;;;;;11.68;5.90;;;17.50;70.60;;;;;;4995025;28;20030;-76
2022/10/10 09:38:20;;;;;;;11.30;5.35;;;17.50;70.00;;;;;;5008901;28;20046;-77
2022/10/10 09:40:52;;;;;;;13.95;6.30;;;17.80;69.60;;;;;;5013950;28;20049;-78
2022/10/10 09:43:19;;;;;;;11.77;6.00;;;17.90;68.30;;;;;;5028873;28;20032;-79
2022/10/10 09:45:52;;;;;;;10.68;6.75;;;17.90;68.00;;;;;;5030096;28;20106;-77
2022/10/10 09:48:21;;;;;;;11.68;5.05;;;17.90;67.90;;;;;;5032365;28;20046;-78
2022/10/10 09:50:46;;;;;;;11.60;5.45;;;18.00;68.30;;;;;;5034223;28;20476;-79
2022/10/10 09:53:15;;;;;;;11.00;5.63;;;18.00;67.90;;;;;;5027240;28;20035;-74
2022/10/10 09:55:41;;;;;;;11.80;6.32;;;18.00;68.90;;;;;;5029778;28;20022;-76
2022/10/10 09:58:21;;;;;;;12.68;6.50;;;18.00;68.10;;;;;;5029729;28;20488;-75
2022/10/10 10:00:48;;;;;;;9.88;6.43;;;18.00;68.50;;;;;;5028703;28;20033;-76
2022/10/10 10:03:16;;;;;;;18.55;6.70;;;18.00;68.40;;;;;;5029746;28;20044;-74
2022/10/10 10:05:58;;;;;;;13.07;6.93;;;18.00;67.90;;;;;;5028649;28;20033;-74
2022/10/10 10:08:33;;;;;;;12.63;6.93;;;18.00;68.50;;;;;;5027000;28;20033;-75
2022/10/10 10:10:59;;;;;;;9.60;4.35;;;18.00;69.10;;;;;;5030530;28;20014;-75
2022/10/10 10:13:34;;;;;;;10.52;4.93;;;18.10;68.90;;;;;;5030435;28;20017;-76
2022/10/10 10:16:10;;;;;;;10.80;5.35;;;18.20;68.90;;;;;;5026424;28;20068;-74
2022/10/10 10:18:54;;;;;;;11.82;6.15;;;18.30;68.70;;;;;;5014492;28;20017;-75
2022/10/10 10:21:22;;;;;;;12.60;5.72;;;18.40;68.20;;;;;;5013006;28;20072;-75
2022/10/10 10:23:51;;;;;;;11.05;5.78;;;18.40;67.90;;;;;;5013447;28;20044;-76
2022/10/10 10:26:21;;;;;;;11.38;5.85;;;18.40;68.30;;;;;;5028737;28;20029;-75
2022/10/10 10:28:48;;;;;;;14.73;5.60;;;18.30;68.10;;;;;;5029123;28;20025;-75
2022/10/10 10:31:49;;;;;;;11.75;6.03;;;18.30;68.10;;;;;;5025679;28;20029;-76
2022/10/10 10:34:47;;;;;;;11.70;4.57;;;18.20;68.90;;;;;;4997540;28;20501;-75
2022/10/10 10:37:21;;;;;;;11.20;5.53;;;18.00;69.50;;;;;;5029107;28;20037;-76
2022/10/10 10:40:16;;;;;;;14.10;7.07;;;18.00;69.90;;;;;;5011512;28;20053;-76
2022/10/10 10:43:00;;;;;;;10.60;6.50;;;17.90;69.80;;;;;;5029591;28;20151;-76
2022/10/10 10:46:02;;;;;;;11.10;6.15;;;17.90;70.20;;;;;;5010627;28;20033;-75
2022/10/10 10:48:47;;;;;;;12.88;6.97;;;18.00;70.30;;;;;;4988488;28;20057;-76
2022/10/10 10:51:50;;;;;;;9.38;5.20;;;18.00;70.00;;;;;;5026169;28;20029;-76
2022/10/10 10:54:27;;;;;;;12.60;6.97;;;18.00;70.40;;;;;;5029470;28;20056;-76
2022/10/10 10:56:59;;;;;;;10.32;5.53;;;18.00;70.40;;;;;;5016780;28;20031;-76
2022/10/10 10:59:44;;;;;;;12.15;5.65;;;18.00;70.40;;;;;;5028740;28;20132;-76
2022/10/10 11:02:09;;;;;;;15.57;7.53;;;18.20;70.50;;;;;;5029672;28;20021;-75
2022/10/10 11:04:57;;;;;;;12.68;7.07;;;18.30;70.60;;;;;;5030313;28;20036;-74
2022/10/10 11:07:29;;;;;;;11.52;6.72;;;18.50;70.00;;;;;;5029665;28;20076;-75
2022/10/10 11:10:20;;;;;;;16.42;7.30;;;18.70;69.50;;;;;;5029257;28;20448;-74
2022/10/10 11:12:57;;;;;;;8.73;5.72;;;18.90;68.30;;;;;;5021606;28;20042;-75
2022/10/10 11:15:38;;;;;;;11.52;6.18;;;19.10;67.80;;;;;;4991027;28;20026;-75
2022/10/10 11:18:24;;;;;;;12.48;5.70;;;19.40;66.50;;;;;;5025064;28;20033;-73
2022/10/10 11:21:01;;;;;;;11.05;5.55;;;19.40;66.30;;;;;;5008006;28;20045;-76
2022/10/10 11:23:39;;;;;;;12.00;6.70;;;19.60;66.80;;;;;;5025899;28;20049;-76
2022/10/10 11:26:09;;;;;;;11.82;6.30;;;19.90;65.60;;;;;;5024083;28;20080;-74
2022/10/10 11:29:28;;;;;;;11.18;5.35;;;20.20;64.70;;;;;;5025650;28;20051;-73
2022/10/10 11:32:14;;;;;;;8.07;4.78;;;20.60;64.30;;;;;;5013424;28;20132;-72
2022/10/10 11:34:55;;;;;;;10.02;4.72;;;20.80;63.30;;;;;;5026804;28;20100;-73
2022/10/10 11:37:26;;;;;;;13.55;6.25;;;20.70;63.80;;;;;;5023545;28;20026;-73
2022/10/10 11:39:58;;;;;;;9.52;5.47;;;20.60;64.00;;;;;;5033660;28;20064;-75
2022/10/10 11:42:44;;;;;;;14.30;5.82;;;20.60;64.20;;;;;;5028118;28;20028;-72
2022/10/10 11:45:24;;;;;;;10.90;5.40;;;20.40;64.40;;;;;;5027821;28;20029;-73
2022/10/10 11:48:04;;;;;;;12.48;5.50;;;20.20;64.60;;;;;;5027211;28;20025;-74
2022/10/10 11:50:40;;;;;;;10.57;5.03;;;20.10;65.30;;;;;;5032126;28;20071;-74
2022/10/10 11:53:16;;;;;;;10.68;5.35;;;20.00;65.90;;;;;;5031870;28;20032;-76
2022/10/10 11:55:55;;;;;;;13.18;5.05;;;19.90;66.70;;;;;;5030515;28;20071;-77
2022/10/10 11:58:27;;;;;;;10.40;4.07;;;19.90;66.40;;;;;;5020276;28;20022;-76
2022/10/10 12:00:58;;;;;;;12.20;5.40;;;19.80;66.80;;;;;;5031984;28;20380;-74
2022/10/10 12:03:25;;;;;;;13.25;6.20;;;19.80;66.70;;;;;;5010282;28;20029;-74
2022/10/10 12:06:01;;;;;;;10.60;4.57;;;19.70;66.90;;;;;;5030798;28;20040;-74
2022/10/10 12:08:36;;;;;;;14.52;4.70;;;19.90;67.60;;;;;;5024681;28;20148;-72
2022/10/10 12:11:08;;;;;;;13.88;5.38;;;20.00;67.20;;;;;;5029384;28;20057;-74
2022/10/10 12:13:48;;;;;;;15.07;6.68;;;20.20;66.30;;;;;;5030189;28;20017;-74
2022/10/10 12:16:22;;;;;;;15.43;6.32;;;20.30;66.00;;;;;;5031119;28;20063;-73
2022/10/10 12:18:59;;;;;;;10.40;5.28;;;20.50;66.00;;;;;;5030426;28;20044;-73
2022/10/10 12:21:27;;;;;;;13.63;6.07;;;20.70;65.90;;;;;;5014811;28;20054;-72
2022/10/10 12:24:08;;;;;;;10.18;4.85;;;20.70;65.20;;;;;;5031589;28;20021;-74
2022/10/10 12:26:52;;;;;;;12.85;5.65;;;20.80;66.10;;;;;;5032087;28;20332;-75
2022/10/10 12:30:06;;;;;;;11.05;5.50;;;20.70;65.70;;;;;;5031751;28;20034;-74
2022/10/10 12:32:35;;;;;;;11.18;4.43;;;20.50;66.10;;;;;;5031943;28;20391;-74
2022/10/10 12:35:01;;;;;;;10.68;4.40;;;20.30;67.50;;;;;;5032110;28;20029;-74
2022/10/10 12:37:32;;;;;;;9.75;5.32;;;20.20;67.60;;;;;;5031592;28;20383;-73
2022/10/10 12:40:04;;;;;;;17.88;6.13;;;20.10;67.80;;;;;;5031727;28;20117;-73
2022/10/10 12:42:59;;;;;;;11.55;5.90;;;20.00;68.30;;;;;;5031651;28;20072;-74
2022/10/10 12:45:27;;;;;;;10.52;5.07;;;19.80;69.20;;;;;;5021974;28;20097;-74
2022/10/10 12:47:58;;;;;;;9.40;5.18;;;19.70;69.70;;;;;;5031416;28;20031;-74
2022/10/10 12:50:32;;;;;;;9.98;4.60;;;19.50;70.10;;;;;;5019898;28;20033;-74
2022/10/10 12:53:00;;;;;;;15.55;5.47;;;19.40;70.70;;;;;;5030784;28;20029;-74
2022/10/10 12:55:44;;;;;;;13.00;6.05;;;19.40;71.30;;;;;;5030729;28;20022;-72
2022/10/10 12:58:38;;;;;;;13.52;6.18;;;19.20;71.60;;;;;;5030783;28;20040;-74
2022/10/10 13:01:17;;;;;;;10.98;4.82;;;19.10;72.20;;;;;;5004205;28;20052;-74
2022/10/10 13:03:46;;;;;;;11.18;5.15;;;19.00;72.90;;;;;;5030647;28;20108;-75